createdAt,value
2023-02-18T00:01:33.067Z,99.90
2023-02-18T00:04:01.701Z,99.90
2023-02-18T00:06:31.935Z,99.90
2023-02-18T00:09:02.377Z,99.90
2023-02-18T00:11:32.101Z,99.90
2023-02-18T00:14:01.768Z,99.90
2023-02-18T00:16:32.664Z,99.90
2023-02-18T00:19:02.714Z,99.90
2023-02-18T00:21:31.557Z,99.90
2023-02-18T00:23:59.709Z,99.90
2023-02-18T00:26:28.627Z,99.90
2023-02-18T00:28:56.875Z,99.90
2023-02-18T00:31:26.816Z,99.90
2023-02-18T00:33:57.731Z,99.90
2023-02-18T00:36:26.695Z,99.90
2023-02-18T00:38:56.383Z,99.90
2023-02-18T00:41:26.712Z,99.90
2023-02-18T00:43:54.853Z,99.90
2023-02-18T00:46:24.148Z,99.90
2023-02-18T00:48:52.171Z,99.90
2023-02-18T00:51:22.140Z,99.90
2023-02-18T00:53:50.100Z,99.90
2023-02-18T00:56:18.669Z,99.90
2023-02-18T00:58:46.652Z,99.90
2023-02-18T01:01:14.955Z,99.90
2023-02-18T01:03:43.953Z,99.90
2023-02-18T01:06:13.473Z,99.90
2023-02-18T01:08:43.361Z,99.90
2023-02-18T01:11:12.928Z,99.90
2023-02-18T01:13:42.409Z,99.90
2023-02-18T01:16:11.023Z,99.90
2023-02-18T01:18:39.305Z,99.90
2023-02-18T01:21:08.803Z,99.90
2023-02-18T01:23:37.671Z,99.90
2023-02-18T01:26:07.735Z,99.90
2023-02-18T01:28:36.252Z,99.90
2023-02-18T01:31:08.238Z,99.90
2023-02-18T01:33:36.950Z,99.90
2023-02-18T01:36:06.473Z,99.90
2023-02-18T01:38:34.659Z,99.90
2023-02-18T01:41:02.896Z,99.90
2023-02-18T01:43:32.692Z,99.90
2023-02-18T01:46:19.141Z,99.90
2023-02-18T01:48:51.810Z,99.90
2023-02-18T01:51:23.460Z,99.90
2023-02-18T01:53:55.539Z,99.90
2023-02-18T01:56:27.989Z,99.90
2023-02-18T01:59:00.666Z,99.90
2023-02-18T02:01:29.377Z,99.90
2023-02-18T02:03:57.355Z,99.90
2023-02-18T02:06:25.996Z,99.90
2023-02-18T02:08:57.214Z,99.90
2023-02-18T02:11:57.089Z,98.20
2023-02-18T02:14:43.922Z,98.30
2023-02-18T02:17:19.828Z,96.50
2023-02-18T02:20:24.124Z,95.10
2023-02-18T02:23:24.143Z,94.90
2023-02-18T02:26:12.934Z,94.30
2023-02-18T02:29:05.827Z,94.60
2023-02-18T02:32:16.381Z,94.70
2023-02-18T02:34:53.881Z,94.50
2023-02-18T02:37:32.102Z,94.60
2023-02-18T02:40:11.620Z,95.10
2023-02-18T02:42:52.055Z,95.60
2023-02-18T02:45:27.243Z,96.30
2023-02-18T02:48:01.778Z,97.20
2023-02-18T02:50:38.495Z,97.90
2023-02-18T02:53:14.400Z,98.40
2023-02-18T02:55:42.359Z,99.00
2023-02-18T02:58:16.890Z,99.50
2023-02-18T03:01:02.676Z,99.90
2023-02-18T03:03:48.914Z,99.90
2023-02-18T03:06:47.590Z,99.90
2023-02-18T03:09:20.698Z,99.90
2023-02-18T03:11:58.832Z,99.90
2023-02-18T03:14:30.947Z,98.00
2023-02-18T03:17:04.274Z,97.70
2023-02-18T03:19:39.569Z,97.10
2023-02-18T03:22:13.197Z,96.70
2023-02-18T03:24:43.536Z,96.60
2023-02-18T03:27:15.135Z,96.80
2023-02-18T03:29:47.279Z,97.70
2023-02-18T03:32:19.834Z,98.40
2023-02-18T03:34:52.578Z,99.50
2023-02-18T03:37:22.746Z,99.90
2023-02-18T03:39:54.582Z,99.90
2023-02-18T03:42:27.628Z,99.90
2023-02-18T03:44:55.626Z,99.90
2023-02-18T03:47:23.721Z,99.90
2023-02-18T03:49:51.704Z,99.90
2023-02-18T03:52:21.026Z,99.90
2023-02-18T03:54:49.014Z,99.90
2023-02-18T03:57:16.968Z,99.90
2023-02-18T03:59:45.035Z,99.90
2023-02-18T04:02:13.021Z,99.90
2023-02-18T04:04:41.019Z,99.90
2023-02-18T04:07:09.012Z,99.90
2023-02-18T04:09:38.379Z,99.90
2023-02-18T04:12:06.645Z,99.90
2023-02-18T04:14:34.577Z,99.90
2023-02-18T04:17:02.583Z,99.90
2023-02-18T04:19:30.531Z,97.40
2023-02-18T04:21:58.501Z,95.10
2023-02-18T04:24:26.611Z,92.10
2023-02-18T04:26:55.981Z,90.20
2023-02-18T04:29:23.916Z,86.90
2023-02-18T04:31:51.934Z,85.10
2023-02-18T04:34:19.926Z,82.50
2023-02-18T04:36:47.908Z,78.10
2023-02-18T04:39:15.964Z,76.90
2023-02-18T04:41:43.987Z,75.80
2023-02-18T04:44:13.330Z,74.70
2023-02-18T04:46:41.278Z,73.60
2023-02-18T04:49:09.288Z,74.00
2023-02-18T04:51:37.643Z,74.50
2023-02-18T04:54:06.155Z,74.40
2023-02-18T04:56:34.169Z,75.00
2023-02-18T04:59:02.161Z,75.00
2023-02-18T05:01:31.534Z,75.20
2023-02-18T05:03:59.545Z,76.20
2023-02-18T05:06:27.550Z,77.00
2023-02-18T05:08:55.578Z,77.50
2023-02-18T05:11:23.550Z,78.00
2023-02-18T05:13:51.524Z,78.40
2023-02-18T05:16:19.493Z,78.50
2023-02-18T05:18:48.791Z,77.40
2023-02-18T05:21:16.790Z,77.10
2023-02-18T05:23:44.783Z,76.40
2023-02-18T05:26:12.776Z,75.70
2023-02-18T05:28:40.735Z,75.00
2023-02-18T05:31:08.907Z,73.90
2023-02-18T05:33:36.972Z,75.10
2023-02-18T05:36:07.100Z,74.50
2023-02-18T05:38:35.357Z,74.00
2023-02-18T05:41:03.305Z,74.20
2023-02-18T05:43:31.326Z,74.40
2023-02-18T05:45:59.339Z,75.20
2023-02-18T05:48:27.374Z,75.20
2023-02-18T05:50:55.676Z,75.20
2023-02-18T05:53:24.979Z,75.20
2023-02-18T05:55:52.927Z,75.00
2023-02-18T05:58:20.880Z,74.00
2023-02-18T06:00:48.871Z,73.50
2023-02-18T06:03:16.862Z,73.00
2023-02-18T06:05:44.860Z,72.60
2023-02-18T06:08:12.848Z,72.90
2023-02-18T06:10:42.973Z,72.70
2023-02-18T06:13:10.923Z,72.40
2023-02-18T06:15:39.926Z,71.70
2023-02-18T06:18:08.360Z,71.40
2023-02-18T06:20:36.310Z,71.10
2023-02-18T06:23:04.365Z,70.90
2023-02-18T06:25:32.326Z,70.80
2023-02-18T06:28:01.672Z,71.10
2023-02-18T06:30:29.692Z,70.70
2023-02-18T06:32:57.736Z,70.00
2023-02-18T06:35:25.735Z,69.70
2023-02-18T06:37:54.500Z,69.40
2023-02-18T06:40:22.509Z,68.10
2023-02-18T06:42:56.490Z,68.30
2023-02-18T06:45:25.867Z,67.90
2023-02-18T06:47:53.833Z,67.70
2023-02-18T06:50:21.836Z,67.80
2023-02-18T06:52:50.070Z,68.00
2023-02-18T06:55:18.346Z,67.90
2023-02-18T06:57:46.442Z,67.70
2023-02-18T07:00:15.313Z,67.80
2023-02-18T07:02:44.737Z,68.00
2023-02-18T07:05:12.928Z,67.70
2023-02-18T07:07:40.898Z,67.40
2023-02-18T07:10:09.959Z,67.30
2023-02-18T07:12:37.961Z,67.10
2023-02-18T07:15:06.501Z,66.80
2023-02-18T07:17:34.478Z,66.60
2023-02-18T07:20:04.538Z,66.90
2023-02-18T07:22:32.525Z,66.90
2023-02-18T07:25:00.665Z,66.10
2023-02-18T07:27:28.748Z,65.70
2023-02-18T07:29:56.962Z,65.30
2023-02-18T07:32:25.087Z,65.60
2023-02-18T07:34:53.291Z,65.00
2023-02-18T07:37:22.727Z,64.00
2023-02-18T07:39:50.799Z,63.80
2023-02-18T07:42:21.906Z,64.00
2023-02-18T07:44:50.013Z,64.10
2023-02-18T07:47:21.767Z,64.50
2023-02-18T07:49:49.814Z,64.50
2023-02-18T07:52:18.053Z,65.30
2023-02-18T07:54:47.784Z,64.50
2023-02-18T07:57:16.034Z,65.50
2023-02-18T07:59:44.354Z,65.90
2023-02-18T08:02:18.835Z,66.30
2023-02-18T08:04:47.080Z,66.10
2023-02-18T08:07:20.324Z,66.10
2023-02-18T08:09:50.831Z,66.70
2023-02-18T08:12:18.992Z,66.60
2023-02-18T08:14:46.983Z,65.90
2023-02-18T08:17:15.646Z,64.40
2023-02-18T08:19:43.794Z,64.20
2023-02-18T08:22:12.230Z,63.20
2023-02-18T08:24:40.488Z,63.80
2023-02-18T08:27:09.892Z,63.90
2023-02-18T08:29:37.938Z,64.20
2023-02-18T08:32:06.345Z,63.90
2023-02-18T08:34:34.746Z,63.90
2023-02-18T08:37:03.418Z,64.50
2023-02-18T08:39:36.234Z,65.00
2023-02-18T08:42:05.677Z,64.90
2023-02-18T08:44:35.456Z,65.00
2023-02-18T08:47:03.472Z,64.80
2023-02-18T08:49:31.521Z,64.50
2023-02-18T08:51:59.556Z,64.50
2023-02-18T08:54:27.582Z,65.00
2023-02-18T08:56:57.737Z,65.50
2023-02-18T08:59:26.296Z,66.00
2023-02-18T09:01:55.650Z,66.30
2023-02-18T09:04:23.714Z,66.40
2023-02-18T09:06:51.719Z,66.90
2023-02-18T09:09:20.020Z,67.10
2023-02-18T09:11:48.020Z,67.80
2023-02-18T09:14:16.638Z,67.90
2023-02-18T09:16:44.644Z,67.90
2023-02-18T09:19:13.931Z,68.30
2023-02-18T09:21:41.930Z,68.90
2023-02-18T09:24:10.366Z,69.30
2023-02-18T09:26:39.762Z,69.70
2023-02-18T09:29:07.865Z,70.10
2023-02-18T09:31:35.977Z,70.70
2023-02-18T09:34:04.270Z,71.40
2023-02-18T09:36:34.547Z,71.40
2023-02-18T09:39:02.674Z,71.50
2023-02-18T09:41:40.493Z,71.80
2023-02-18T09:44:14.368Z,71.80
2023-02-18T09:46:47.564Z,71.70
2023-02-18T09:49:19.802Z,71.10
2023-02-18T09:51:49.690Z,70.90
2023-02-18T09:54:20.332Z,71.40
2023-02-18T09:56:49.538Z,70.10
2023-02-18T09:59:19.491Z,70.00
2023-02-18T10:01:52.103Z,69.70
2023-02-18T10:04:24.206Z,70.30
2023-02-18T10:06:55.178Z,70.90
2023-02-18T10:09:26.486Z,71.40
2023-02-18T10:11:59.003Z,72.00
2023-02-18T10:14:27.523Z,73.60
2023-02-18T10:16:55.682Z,74.90
2023-02-18T10:19:28.957Z,77.90
2023-02-18T10:21:58.940Z,76.20
2023-02-18T10:24:34.507Z,77.90
2023-02-18T10:27:04.811Z,80.70
2023-02-18T10:29:32.975Z,81.50
2023-02-18T10:32:08.342Z,81.70
2023-02-18T10:34:46.680Z,81.50
2023-02-18T10:37:30.152Z,81.90
2023-02-18T10:40:10.760Z,82.10
2023-02-18T10:42:48.072Z,82.50
2023-02-18T10:45:27.694Z,82.90
2023-02-18T10:48:06.302Z,83.80
2023-02-18T10:50:39.149Z,83.10
2023-02-18T10:53:15.172Z,83.30
2023-02-18T10:55:45.532Z,83.70
2023-02-18T10:58:28.920Z,84.30
2023-02-18T11:00:57.272Z,85.80
2023-02-18T11:03:26.640Z,87.60
2023-02-18T11:05:56.825Z,88.40
2023-02-18T11:08:28.900Z,89.10
2023-02-18T11:10:58.574Z,89.00
2023-02-18T11:13:29.279Z,88.80
2023-02-18T11:16:00.483Z,89.60
2023-02-18T11:18:34.927Z,90.10
2023-02-18T11:21:05.506Z,90.70
2023-02-18T11:23:47.823Z,90.70
2023-02-18T11:26:18.449Z,90.60
2023-02-18T11:28:48.852Z,90.50
2023-02-18T11:31:22.651Z,90.70
2023-02-18T11:33:54.257Z,90.90
2023-02-18T11:36:29.095Z,90.80
2023-02-18T11:39:00.327Z,90.90
2023-02-18T11:41:35.153Z,91.00
2023-02-18T11:44:06.028Z,91.20
2023-02-18T11:46:34.186Z,91.40
2023-02-18T11:49:22.514Z,91.90
2023-02-18T11:51:51.886Z,92.20
2023-02-18T11:54:27.466Z,92.60
2023-02-18T11:56:58.359Z,93.10
2023-02-18T11:59:27.034Z,93.50
2023-02-18T12:02:00.321Z,94.10
2023-02-18T12:04:31.227Z,94.40
2023-02-18T12:07:14.246Z,94.80
2023-02-18T12:09:48.063Z,95.60
2023-02-18T12:12:20.680Z,97.80
2023-02-18T12:14:48.714Z,99.20
2023-02-18T12:17:41.322Z,99.90
2023-02-18T12:20:27.047Z,99.90
2023-02-18T12:23:02.897Z,99.90
2023-02-18T12:25:38.828Z,99.90
2023-02-18T12:28:22.450Z,99.90
2023-02-18T12:31:12.371Z,99.90
2023-02-18T12:33:53.062Z,99.90
2023-02-18T12:36:33.322Z,99.90
2023-02-18T12:39:11.684Z,99.90
2023-02-18T12:41:55.858Z,99.90
2023-02-18T12:44:45.144Z,99.90
2023-02-18T12:47:37.496Z,99.90
2023-02-18T12:50:32.624Z,99.90
2023-02-18T12:53:17.722Z,99.90
2023-02-18T12:56:01.907Z,99.90
2023-02-18T12:58:44.657Z,99.90
2023-02-18T13:01:29.297Z,99.90
2023-02-18T13:04:26.837Z,99.90
2023-02-18T13:07:18.487Z,99.90
2023-02-18T13:10:02.452Z,99.90
2023-02-18T13:12:36.263Z,99.90
2023-02-18T13:15:14.715Z,99.90
2023-02-18T13:17:44.233Z,99.90
2023-02-18T13:20:21.966Z,99.90
2023-02-18T13:22:50.855Z,99.90
2023-02-18T13:25:20.455Z,99.90
2023-02-18T13:27:57.523Z,99.90
2023-02-18T13:30:35.601Z,99.90
2023-02-18T13:33:15.438Z,99.90
2023-02-18T13:35:48.695Z,99.90
2023-02-18T13:38:46.914Z,99.90
2023-02-18T13:41:15.102Z,99.90
2023-02-18T13:43:45.656Z,99.90
2023-02-18T13:46:19.181Z,99.90
2023-02-18T13:48:52.589Z,99.90
2023-02-18T13:51:31.854Z,99.90
2023-02-18T13:54:05.373Z,99.90
2023-02-18T13:56:36.358Z,99.90
2023-02-18T13:59:11.683Z,99.90
2023-02-18T14:01:43.694Z,99.90
2023-02-18T14:04:48.999Z,99.90
2023-02-18T14:07:31.429Z,99.90
2023-02-18T14:10:00.225Z,99.90
2023-02-18T14:12:38.593Z,99.90
2023-02-18T14:15:43.819Z,99.90
2023-02-18T14:18:25.870Z,99.90
2023-02-18T14:20:54.552Z,99.90
2023-02-18T14:23:59.904Z,99.90
2023-02-18T14:26:37.574Z,99.90
2023-02-18T14:29:19.109Z,99.90
2023-02-18T14:31:53.313Z,99.90
2023-02-18T14:34:37.258Z,99.90
2023-02-18T14:37:18.591Z,99.90
2023-02-18T14:39:55.589Z,99.90
2023-02-18T14:42:35.814Z,99.90
2023-02-18T14:45:18.297Z,99.90
2023-02-18T14:48:07.828Z,99.90
2023-02-18T14:50:39.874Z,99.90
2023-02-18T14:53:13.364Z,99.90
2023-02-18T14:55:47.046Z,99.90
2023-02-18T14:58:27.624Z,99.90
2023-02-18T15:00:55.622Z,99.90
2023-02-18T15:03:25.193Z,99.90
2023-02-18T15:05:54.569Z,99.90
2023-02-18T15:08:24.138Z,99.90
2023-02-18T15:10:57.677Z,99.90
2023-02-18T15:13:29.387Z,99.90
2023-02-18T15:16:01.121Z,99.90
2023-02-18T15:18:33.602Z,99.90
2023-02-18T15:21:04.399Z,99.90
2023-02-18T15:23:36.091Z,99.90
2023-02-18T15:26:04.857Z,99.90
2023-02-18T15:28:35.233Z,99.90
2023-02-18T15:31:05.250Z,99.90
2023-02-18T15:33:33.253Z,99.90
2023-02-18T15:36:07.952Z,99.90
2023-02-18T15:38:39.160Z,99.90
2023-02-18T15:41:12.512Z,99.90
2023-02-18T15:43:41.607Z,99.90
2023-02-18T15:46:15.166Z,99.90
2023-02-18T15:48:47.814Z,99.90
2023-02-18T15:51:23.134Z,99.90
2023-02-18T15:53:54.404Z,99.90
2023-02-18T15:56:29.410Z,99.90
2023-02-18T15:59:10.381Z,99.90
2023-02-18T16:01:38.874Z,99.90
2023-02-18T16:04:08.464Z,99.90
2023-02-18T16:06:40.278Z,99.90
2023-02-18T16:09:17.070Z,99.90
2023-02-18T16:11:48.263Z,99.90
2023-02-18T16:14:28.899Z,99.90
2023-02-18T16:17:15.117Z,99.90
2023-02-18T16:20:03.562Z,99.90
2023-02-18T16:22:44.122Z,99.90
2023-02-18T16:25:18.259Z,99.90
2023-02-18T16:27:53.020Z,99.90
2023-02-18T16:30:23.518Z,99.90
2023-02-18T16:32:52.114Z,99.90
2023-02-18T16:35:20.620Z,99.90
2023-02-18T16:37:51.127Z,99.90
2023-02-18T16:40:29.172Z,99.90
2023-02-18T16:42:58.831Z,99.90
2023-02-18T16:45:34.542Z,99.90
2023-02-18T16:48:03.100Z,99.90
2023-02-18T16:50:34.058Z,99.90
2023-02-18T16:53:03.415Z,99.90
2023-02-18T16:55:32.371Z,99.90
2023-02-18T16:58:00.493Z,99.90
2023-02-18T17:00:28.553Z,99.90
2023-02-18T17:02:59.324Z,99.90
2023-02-18T17:05:30.565Z,99.90
2023-02-18T17:08:05.814Z,99.90
2023-02-18T17:10:36.459Z,99.90
2023-02-18T17:13:04.471Z,99.90
2023-02-18T17:15:35.519Z,99.90
2023-02-18T17:18:04.821Z,99.90
2023-02-18T17:20:34.107Z,99.90
2023-02-18T17:23:02.138Z,99.90
2023-02-18T17:25:35.601Z,99.90
2023-02-18T17:28:04.169Z,99.90
2023-02-18T17:30:36.156Z,99.90
2023-02-18T17:33:05.031Z,99.90
2023-02-18T17:35:33.361Z,99.90
2023-02-18T17:38:01.359Z,99.90
2023-02-18T17:40:31.182Z,99.90
2023-02-18T17:43:00.492Z,99.90
2023-02-18T17:45:32.020Z,99.90
2023-02-18T17:48:01.589Z,99.90
2023-02-18T17:50:31.258Z,99.90
2023-02-18T17:52:59.616Z,99.90
2023-02-18T17:55:29.689Z,99.90
2023-02-18T17:57:59.185Z,99.90
2023-02-18T18:00:31.123Z,99.90
2023-02-18T18:02:59.671Z,99.90
2023-02-18T18:05:29.660Z,99.90
2023-02-18T18:07:57.702Z,99.90
2023-02-18T18:10:30.984Z,99.90
2023-02-18T18:13:00.090Z,99.90
2023-02-18T18:15:32.098Z,99.90
2023-02-18T18:18:00.213Z,99.90
2023-02-18T18:20:30.184Z,99.90
2023-02-18T18:23:00.272Z,99.90
2023-02-18T18:25:29.620Z,99.90
2023-02-18T18:27:58.026Z,99.90
2023-02-18T18:30:28.242Z,99.90
2023-02-18T18:32:58.253Z,99.90
2023-02-18T18:35:29.166Z,99.90
2023-02-18T18:37:58.012Z,99.90
2023-02-18T18:40:28.186Z,99.90
2023-02-18T18:42:56.927Z,99.90
2023-02-18T18:45:27.439Z,99.90
2023-02-18T18:47:57.262Z,99.90
2023-02-18T18:50:26.302Z,99.90
2023-02-18T18:52:54.691Z,99.90
2023-02-18T18:55:33.836Z,99.90
2023-02-18T18:58:02.103Z,99.90
2023-02-18T19:00:32.558Z,99.90
2023-02-18T19:03:04.092Z,99.90
2023-02-18T19:05:34.753Z,99.90
2023-02-18T19:08:03.445Z,99.90
2023-02-18T19:10:33.174Z,99.90
2023-02-18T19:13:03.518Z,99.90
2023-02-18T19:15:31.916Z,99.90
2023-02-18T19:18:01.332Z,99.90
2023-02-18T19:20:32.675Z,99.90
2023-02-18T19:23:00.664Z,99.90
2023-02-18T19:25:29.062Z,99.90
2023-02-18T19:27:57.444Z,99.90
2023-02-18T19:30:27.325Z,99.90
2023-02-18T19:32:57.553Z,99.90
2023-02-18T19:35:28.052Z,99.90
2023-02-18T19:37:56.146Z,99.90
2023-02-18T19:40:26.174Z,99.90
2023-02-18T19:42:54.474Z,99.90
2023-02-18T19:45:22.941Z,99.90
2023-02-18T19:47:55.233Z,99.90
2023-02-18T19:50:24.235Z,99.90
2023-02-18T19:52:54.773Z,99.90
2023-02-18T19:55:23.654Z,99.90
2023-02-18T19:57:52.093Z,99.90
2023-02-18T20:00:22.304Z,99.90
2023-02-18T20:02:50.790Z,99.90
2023-02-18T20:05:20.019Z,99.90
2023-02-18T20:07:48.252Z,99.90
2023-02-18T20:10:20.730Z,99.90
2023-02-18T20:12:53.403Z,99.90
2023-02-18T20:15:21.885Z,99.90
2023-02-18T20:17:50.032Z,99.90
2023-02-18T20:20:18.764Z,99.90
2023-02-18T20:22:46.893Z,99.90
2023-02-18T20:25:14.870Z,99.90
2023-02-18T20:27:58.454Z,99.90
2023-02-18T20:30:27.719Z,99.90
2023-02-18T20:32:55.701Z,99.90
2023-02-18T20:35:23.663Z,99.90
2023-02-18T20:37:51.625Z,99.90
2023-02-18T20:40:19.670Z,99.90
2023-02-18T20:42:49.012Z,99.90
2023-02-18T20:45:17.078Z,99.90
2023-02-18T20:47:45.065Z,99.90
2023-02-18T20:50:13.060Z,99.90
2023-02-18T20:52:41.085Z,99.90
2023-02-18T20:55:09.346Z,99.90
2023-02-18T20:57:37.284Z,99.90
2023-02-18T21:00:07.877Z,99.90
2023-02-18T21:02:35.904Z,99.90
2023-02-18T21:05:04.066Z,99.90
2023-02-18T21:07:32.123Z,99.90
2023-02-18T21:10:00.161Z,99.90
2023-02-18T21:12:28.113Z,99.90
2023-02-18T21:14:56.119Z,99.90
2023-02-18T21:17:25.411Z,99.90
2023-02-18T21:19:53.388Z,99.90
2023-02-18T21:22:21.335Z,99.90
2023-02-18T21:24:51.405Z,99.90
2023-02-18T21:27:19.367Z,99.90
2023-02-18T21:29:47.366Z,99.90
2023-02-18T21:32:15.457Z,99.90
2023-02-18T21:34:44.782Z,99.90
2023-02-18T21:37:12.756Z,99.90
2023-02-18T21:39:40.719Z,99.90
2023-02-18T21:42:08.676Z,99.90
2023-02-18T21:44:42.347Z,99.90
2023-02-18T21:47:10.902Z,99.90
2023-02-18T21:49:38.873Z,99.90
2023-02-18T21:52:10.897Z,99.90
2023-02-18T21:54:41.212Z,99.90
2023-02-18T21:57:12.302Z,99.90
2023-02-18T21:59:41.384Z,99.90
2023-02-18T22:02:16.243Z,99.90
2023-02-18T22:04:44.397Z,99.90
2023-02-18T22:07:13.714Z,99.90
2023-02-18T22:09:41.859Z,99.90
2023-02-18T22:12:11.151Z,99.90
2023-02-18T22:14:39.125Z,99.90
2023-02-18T22:17:07.277Z,99.90
2023-02-18T22:19:35.480Z,99.90
2023-02-18T22:22:03.538Z,99.90
2023-02-18T22:24:33.402Z,99.90
2023-02-18T22:27:01.688Z,99.90
2023-02-18T22:29:31.271Z,99.90
2023-02-18T22:31:59.576Z,99.90
2023-02-18T22:34:27.638Z,99.90
2023-02-18T22:36:55.736Z,99.90
2023-02-18T22:39:24.389Z,99.90
2023-02-18T22:41:53.742Z,99.90
2023-02-18T22:44:23.053Z,99.90
2023-02-18T22:46:51.405Z,99.90
2023-02-18T22:49:19.355Z,99.90
2023-02-18T22:51:47.347Z,99.90
2023-02-18T22:54:17.307Z,99.90
2023-02-18T22:56:46.210Z,99.90
2023-02-18T22:59:17.380Z,99.90
2023-02-18T23:01:49.267Z,99.90
2023-02-18T23:04:19.663Z,99.90
2023-02-18T23:06:48.656Z,99.90
2023-02-18T23:09:19.170Z,99.90
2023-02-18T23:11:49.873Z,99.90
2023-02-18T23:14:19.352Z,99.90
2023-02-18T23:17:06.732Z,99.90
2023-02-18T23:19:36.054Z,99.90
2023-02-18T23:22:04.069Z,99.90
2023-02-18T23:24:34.135Z,99.90
2023-02-18T23:27:02.534Z,99.90
2023-02-18T23:29:31.893Z,99.90
2023-02-18T23:31:59.880Z,99.90
2023-02-18T23:34:28.588Z,99.90
2023-02-18T23:36:57.196Z,99.90
2023-02-18T23:39:25.367Z,99.90
2023-02-18T23:41:53.566Z,99.90
2023-02-18T23:44:23.263Z,99.90
2023-02-18T23:46:53.226Z,99.90
2023-02-18T23:49:23.201Z,99.90
2023-02-18T23:51:51.624Z,99.90
2023-02-18T23:54:20.121Z,99.90
2023-02-18T23:56:48.334Z,99.90
2023-02-18T23:59:16.800Z,99.90
